KAMN/AMN METAR and TAF weather

Enter ICAO airport designator
Station Type Date Time Source
KAMN METAR 2020/04/05 12:56 UTC NOAA

KAMN 051256Z AUTO 01006KT 10SM SCT120 00/M04 A3020 RMK AO2 T00001040


Station Type Date Time Source
KAMN Decoded METAR 2020/04/05 12:56 UTC NOAA

Alma, Gratiot Community Airport, MI, United States (KAMN) 43-19-19N 084-41-16W
Apr 05, 2020 - 08:56 AM EDT / 2020.04.05 1256 UTC
Wind: from the N (010 degrees) at 7 MPH (6 KT):0
Visibility: 10 mile(s):0
Sky conditions: partly cloudy
Temperature: 32.0 F (0.0 C)
Windchill: 24 F (-4 C):1
Dew Point: 24.8 F (-4.0 C)
Relative Humidity: 74%
Pressure (altimeter): 30.2 in. Hg (1022 hPa)
ob: KAMN 051256Z AUTO 01006KT 10SM SCT120 00/M04 A3020 RMK AO2 T00001040
cycle: 13

Station Type Date Time Source
KAMN TAF UTC NOAA

Error!

Example: see airport list